Flight Track Log - Related Links

Times and Time Zones

All times are in EDT time to prevent confusion due to time zone crossing. See the IBE488 flight status page for this flight to view local times or setup timezone preferences in your user account.

Time Position Orientation Groundspeed Altitude Reporting Facility
EDT Latitude Longitude Course Direction KTS MPH feet Rate Location/Type
Wed 06:32:00 AM 42.7365 -5.3416 330° Northwest  Level Estimated
Wed 06:33:00 AM 42.8190 -5.4098 329° Northwest  Level Estimated
Wed 06:34:00 AM 42.9015 -5.4781 329° Northwest  Level Estimated
Wed 06:35:00 AM 42.9840 -5.5467 329° Northwest  Level Estimated
Wed 06:36:00 AM 43.0664 -5.6154 329° Northwest  Level Estimated
Wed 06:37:00 AM 43.1488 -5.6843 329° Northwest  Level Estimated
Wed 06:38:00 AM 43.2311 -5.7533 329° Northwest  Level Estimated
Wed 06:39:00 AM 43.3134 -5.8226 329° Northwest  Level Estimated
Wed 06:40:00 AM 43.3956 -5.8921 328° Northwest  Level Estimated
Wed 06:41:00 AM 43.4778 -5.9617 328° Northwest  Level Estimated
Wed 06:42:00 AM 43.5600 -6.0316 328° Northwest  Level Estimated
Wed 06:43:00 AM 43.5636 -6.0346 328° Northwest  Level Estimated
Wed 06:44:00 AM 43.5636 -6.0346 206° Southwest  Level Estimated
Wed 06:45:00 AM 43.5636 -6.0346 206° Southwest  Level Estimated
Wed 06:46:00 AM 43.5636 -6.0346 206° Southwest  Level Estimated
Wed 06:47:00 AM 43.5636 -6.0346 206° Southwest  Level Estimated
Wed 06:48:00 AM 43.5636 -6.0346 206° Southwest  Level Estimated
Wed 06:49:00 AM 43.5636 -6.0346 206° Southwest  Level Estimated
Wed 06:50:00 AM 43.5636 -6.0346 206° Southwest  Level Estimated
Wed 06:51:00 AM 43.5636 -6.0346 206° Southwest  Level Estimated
Wed 06:52:00 AM 43.5636 -6.0346 206° Southwest  Level Estimated
Wed 06:53:00 AM 43.5636 -6.0346 206° Southwest  Level Estimated
Wed 06:54:00 AM 43.5636 -6.0346 206° Southwest  Level Estimated
Wed 06:55:00 AM 43.5636 -6.0346 206° Southwest  Level Estimated
Wed 06:56:00 AM 43.5636 -6.0346 206° Southwest  Level Estimated
Wed 06:57:00 AM 43.5636 -6.0346 206° Southwest  Level Estimated
Wed 06:58:00 AM 43.5636 -6.0346 206° Southwest  Level Estimated

Login

Don't have an account? Register now (free) for customized features, flight alerts, and more!